Time;durP1;ratioP1;P1;durP2;ratioP2;P2;SDS_P1;SDS_P2;PMS_P1;PMS_P2;Temp;Humidity;BMP_temperature;BMP_pressure;BME280_temperature;BME280_humidity;BME280_pressure;Samples;Min_cycle;Max_cycle;Signal;HPM_P1;HPM_P2
2022/05/12 00:00:09;;;;;;;15.40;8.75;;;11.10;99.90;;;;;;5035109;28;20420;-65
2022/05/12 00:02:36;;;;;;;18.83;9.40;;;11.00;99.90;;;;;;5035085;28;20030;-65
2022/05/12 00:05:02;;;;;;;18.80;7.05;;;11.00;99.90;;;;;;5035352;28;20100;-67
2022/05/12 00:07:28;;;;;;;11.60;7.57;;;10.80;99.90;;;;;;5034803;28;20032;-67
2022/05/12 00:09:55;;;;;;;10.10;6.80;;;10.80;99.90;;;;;;5034282;28;20029;-66
2022/05/12 00:12:21;;;;;;;13.05;6.78;;;10.70;99.90;;;;;;5034845;28;20033;-67
2022/05/12 00:14:46;;;;;;;9.68;6.32;;;10.70;99.90;;;;;;5034436;28;20488;-68
2022/05/12 00:17:12;;;;;;;13.77;7.95;;;10.70;99.90;;;;;;5034272;28;20022;-67
2022/05/12 00:19:38;;;;;;;16.88;6.90;;;10.70;99.90;;;;;;5034006;28;20478;-67
2022/05/12 00:22:03;;;;;;;16.95;6.90;;;10.60;99.90;;;;;;5034625;28;20386;-67
2022/05/12 00:24:29;;;;;;;14.57;8.00;;;10.50;99.90;;;;;;5034692;28;20501;-67
2022/05/12 00:26:55;;;;;;;20.63;8.45;;;10.50;99.90;;;;;;5034611;28;20032;-67
2022/05/12 00:29:20;;;;;;;20.98;7.55;;;10.50;99.90;;;;;;5034534;28;20084;-67
2022/05/12 00:31:47;;;;;;;13.90;7.40;;;10.50;99.90;;;;;;5033890;28;20025;-67
2022/05/12 00:34:15;;;;;;;10.48;6.70;;;10.40;99.90;;;;;;5034959;28;20105;-67
2022/05/12 00:36:40;;;;;;;12.38;7.72;;;10.40;99.90;;;;;;5034186;28;20477;-68
2022/05/12 00:39:06;;;;;;;12.30;7.22;;;10.40;99.90;;;;;;5034183;28;20033;-67
2022/05/12 00:41:32;;;;;;;14.23;7.03;;;10.30;99.90;;;;;;5034233;28;20026;-67
2022/05/12 00:44:02;;;;;;;15.13;7.15;;;10.40;99.90;;;;;;5033561;28;20030;-68
2022/05/12 00:46:35;;;;;;;18.65;7.10;;;10.30;99.90;;;;;;5034450;28;20072;-67
2022/05/12 00:49:15;;;;;;;18.30;7.93;;;10.30;99.90;;;;;;5034559;28;20029;-67
2022/05/12 00:51:45;;;;;;;16.48;7.35;;;10.30;99.90;;;;;;5033654;28;20107;-67
2022/05/12 00:54:30;;;;;;;21.15;8.20;;;10.30;99.90;;;;;;5034012;28;20492;-67
2022/05/12 00:56:58;;;;;;;19.60;8.10;;;10.30;99.90;;;;;;5033849;28;20025;-67
2022/05/12 00:59:30;;;;;;;18.27;8.25;;;10.30;99.90;;;;;;5033983;28;20021;-67
2022/05/12 01:01:57;;;;;;;12.80;6.82;;;10.30;99.90;;;;;;5033771;28;20022;-68
2022/05/12 01:04:24;;;;;;;14.68;6.13;;;10.30;99.90;;;;;;5033950;28;20040;-68
2022/05/12 01:06:51;;;;;;;18.67;6.65;;;10.30;99.90;;;;;;5033832;28;20037;-67
2022/05/12 01:09:18;;;;;;;15.32;6.25;;;10.20;99.90;;;;;;5033976;28;20107;-67
2022/05/12 01:11:44;;;;;;;10.20;5.78;;;10.20;99.90;;;;;;5033514;28;20024;-67
2022/05/12 01:14:10;;;;;;;14.88;6.55;;;10.20;99.90;;;;;;5033167;28;20026;-67
2022/05/12 01:16:48;;;;;;;15.60;7.20;;;10.10;99.90;;;;;;5033714;28;20031;-68
2022/05/12 01:19:22;;;;;;;22.33;9.52;;;10.20;99.90;;;;;;5033642;28;20052;-69
2022/05/12 01:21:50;;;;;;;22.67;9.73;;;10.20;99.90;;;;;;5033810;28;20025;-69
2022/05/12 01:24:17;;;;;;;23.48;9.25;;;10.30;99.90;;;;;;5033195;28;20033;-68
2022/05/12 01:26:42;;;;;;;22.17;10.05;;;10.20;99.90;;;;;;5033314;28;20079;-68
2022/05/12 01:29:09;;;;;;;24.23;9.63;;;10.30;99.90;;;;;;5033488;28;20033;-68
2022/05/12 01:31:35;;;;;;;22.65;9.57;;;10.20;99.90;;;;;;5033301;28;20027;-68
2022/05/12 01:34:02;;;;;;;20.70;8.10;;;10.20;99.90;;;;;;5033561;28;20096;-67
2022/05/12 01:36:28;;;;;;;22.73;8.45;;;10.10;99.90;;;;;;5033376;28;20060;-67
2022/05/12 01:38:54;;;;;;;17.70;8.30;;;10.10;99.90;;;;;;5033118;28;20053;-68
2022/05/12 01:41:19;;;;;;;19.70;7.90;;;10.00;99.90;;;;;;5033395;28;20366;-68
2022/05/12 01:43:46;;;;;;;21.40;8.07;;;9.90;99.90;;;;;;5033361;28;20034;-68
2022/05/12 01:46:12;;;;;;;20.85;8.50;;;9.80;99.90;;;;;;5033522;28;20049;-68
2022/05/12 01:48:38;;;;;;;24.67;8.35;;;9.70;99.90;;;;;;5033302;28;20030;-67
2022/05/12 01:51:05;;;;;;;17.52;8.55;;;9.70;99.90;;;;;;5033391;28;20029;-67
2022/05/12 01:53:30;;;;;;;22.20;8.57;;;9.60;99.90;;;;;;5032551;28;20030;-67
2022/05/12 01:55:57;;;;;;;25.90;9.05;;;9.70;99.90;;;;;;5033131;28;20040;-67
2022/05/12 01:58:23;;;;;;;21.27;7.68;;;9.80;99.90;;;;;;5033157;28;20025;-67
2022/05/12 02:00:49;;;;;;;23.80;8.68;;;9.80;99.90;;;;;;5033116;28;20025;-67
2022/05/12 02:03:15;;;;;;;23.70;8.52;;;9.80;99.90;;;;;;5033067;28;20026;-67
2022/05/12 02:05:42;;;;;;;26.33;8.00;;;9.80;99.90;;;;;;5033120;28;20400;-67
2022/05/12 02:08:09;;;;;;;34.40;10.07;;;9.70;99.90;;;;;;5032732;28;20469;-67
2022/05/12 02:10:38;;;;;;;31.80;9.38;;;9.70;99.90;;;;;;5033261;28;20029;-67
2022/05/12 02:13:09;;;;;;;27.48;8.40;;;9.70;99.90;;;;;;5033703;28;20029;-67
2022/05/12 02:15:37;;;;;;;18.98;8.40;;;9.60;99.90;;;;;;5032488;28;20466;-67
2022/05/12 02:18:03;;;;;;;29.55;10.43;;;9.60;99.90;;;;;;5033170;28;20025;-67
2022/05/12 02:20:28;;;;;;;27.02;8.55;;;9.50;99.90;;;;;;5032924;28;20052;-68
2022/05/12 02:22:54;;;;;;;26.80;8.93;;;9.40;99.90;;;;;;5032872;28;20034;-68
2022/05/12 02:25:20;;;;;;;31.88;8.82;;;9.50;99.90;;;;;;5033169;28;20362;-67
2022/05/12 02:27:46;;;;;;;23.90;9.90;;;9.60;99.90;;;;;;5032387;28;20017;-67
2022/05/12 02:30:16;;;;;;;21.67;10.15;;;9.60;99.90;;;;;;5033366;28;20029;-66
2022/05/12 02:32:41;;;;;;;21.88;8.68;;;9.70;99.90;;;;;;5033018;28;20048;-68
2022/05/12 02:35:08;;;;;;;25.65;9.25;;;9.80;99.90;;;;;;5032761;28;20474;-68
2022/05/12 02:37:33;;;;;;;36.85;10.27;;;9.80;99.90;;;;;;5032590;28;20018;-67
2022/05/12 02:39:59;;;;;;;32.83;10.55;;;9.80;99.90;;;;;;5034727;28;20025;-67
2022/05/12 02:42:24;;;;;;;37.67;9.65;;;9.80;99.90;;;;;;5036415;28;20029;-68
2022/05/12 02:44:50;;;;;;;40.05;11.10;;;9.80;99.90;;;;;;5036752;28;20029;-68
2022/05/12 02:47:16;;;;;;;27.17;9.57;;;9.80;99.90;;;;;;5036325;28;20409;-68
2022/05/12 02:49:41;;;;;;;44.83;12.30;;;9.90;99.90;;;;;;5036573;28;20445;-68
2022/05/12 02:52:08;;;;;;;33.00;10.40;;;9.90;99.90;;;;;;5035710;28;20088;-67
2022/05/12 02:54:34;;;;;;;25.48;9.68;;;9.90;99.90;;;;;;5036421;28;20083;-67
2022/05/12 02:57:00;;;;;;;40.20;11.68;;;9.90;99.90;;;;;;5036322;28;20523;-67
2022/05/12 02:59:25;;;;;;;45.83;10.90;;;9.90;99.90;;;;;;5036277;28;20025;-67
2022/05/12 03:01:51;;;;;;;47.13;12.18;;;9.90;99.90;;;;;;5035432;28;20029;-67
2022/05/12 03:04:17;;;;;;;35.45;10.50;;;9.80;99.90;;;;;;5035947;28;20114;-67
2022/05/12 03:06:43;;;;;;;37.40;11.25;;;9.80;99.90;;;;;;5036135;28;20030;-67
2022/05/12 03:09:09;;;;;;;32.30;11.40;;;9.80;99.90;;;;;;5035504;28;20026;-68
2022/05/12 03:11:35;;;;;;;42.30;10.50;;;9.80;99.90;;;;;;5036191;28;20030;-68
2022/05/12 03:14:03;;;;;;;37.97;10.20;;;9.80;99.90;;;;;;5036485;28;20079;-67
2022/05/12 03:16:29;;;;;;;30.02;9.85;;;9.80;99.90;;;;;;5035980;28;20036;-67
2022/05/12 03:18:55;;;;;;;32.05;11.48;;;9.70;99.90;;;;;;5035557;28;20025;-67
2022/05/12 03:21:21;;;;;;;45.90;11.07;;;9.60;99.90;;;;;;5035149;28;20022;-67
2022/05/12 03:23:47;;;;;;;45.42;11.32;;;9.60;99.90;;;;;;5035906;28;20484;-67
2022/05/12 03:26:13;;;;;;;33.42;10.85;;;9.60;99.90;;;;;;5035828;28;20044;-67
2022/05/12 03:28:40;;;;;;;34.50;10.38;;;9.60;99.90;;;;;;5035030;28;20025;-68
2022/05/12 03:31:07;;;;;;;38.78;10.80;;;9.60;99.90;;;;;;5035681;28;20021;-67
2022/05/12 03:33:34;;;;;;;48.20;11.43;;;9.60;99.90;;;;;;5035636;28;20022;-67
2022/05/12 03:36:00;;;;;;;43.28;10.55;;;9.70;99.90;;;;;;5035358;28;20029;-67
2022/05/12 03:38:26;;;;;;;41.30;11.23;;;9.70;99.90;;;;;;5035115;28;20024;-67
2022/05/12 03:40:52;;;;;;;42.28;10.40;;;9.70;99.90;;;;;;5035267;28;20022;-67
2022/05/12 03:46:04;;;;;;;48.33;10.88;;;9.70;99.90;;;;;;5035239;28;20156;-67
2022/05/12 03:48:30;;;;;;;39.13;10.23;;;9.70;99.90;;;;;;5035152;28;20030;-67
2022/05/12 03:50:55;;;;;;;48.75;11.25;;;9.70;99.90;;;;;;5034608;28;20800;-68
2022/05/12 03:53:21;;;;;;;40.33;10.40;;;9.70;99.90;;;;;;5034874;28;20040;-68
2022/05/12 03:55:48;;;;;;;57.08;11.35;;;9.70;99.90;;;;;;5035088;28;20032;-67
2022/05/12 03:58:13;;;;;;;46.50;9.75;;;9.70;99.90;;;;;;5035184;28;20025;-68
2022/05/12 04:00:39;;;;;;;49.42;11.73;;;9.60;99.90;;;;;;5035471;28;20384;-69
2022/05/12 04:03:04;;;;;;;38.67;10.60;;;9.70;99.90;;;;;;5034836;28;20036;-67
2022/05/12 04:05:31;;;;;;;34.88;11.38;;;9.70;99.90;;;;;;5024263;28;20060;-67
2022/05/12 04:07:58;;;;;;;43.80;11.00;;;9.70;99.90;;;;;;5014960;28;20022;-68
2022/05/12 04:10:25;;;;;;;49.17;12.25;;;9.70;99.90;;;;;;5014997;28;20060;-68
2022/05/12 04:12:51;;;;;;;40.88;11.15;;;9.80;99.90;;;;;;5015022;28;20485;-67
2022/05/12 04:15:18;;;;;;;64.22;12.52;;;9.80;99.90;;;;;;5014632;28;20030;-67
2022/05/12 04:17:46;;;;;;;47.83;12.73;;;9.80;99.90;;;;;;5015065;28;20080;-67
2022/05/12 04:20:13;;;;;;;43.50;11.23;;;9.80;99.90;;;;;;5014798;28;20503;-67
2022/05/12 04:22:45;;;;;;;54.30;12.48;;;9.80;99.90;;;;;;5030996;28;20120;-67
2022/05/12 04:25:12;;;;;;;50.25;11.43;;;9.80;99.90;;;;;;5034534;28;20048;-68
2022/05/12 04:27:38;;;;;;;49.97;10.77;;;9.90;99.90;;;;;;5034616;28;20025;-68
2022/05/12 04:30:06;;;;;;;54.03;10.65;;;9.90;99.90;;;;;;5034368;28;20029;-68
2022/05/12 04:32:31;;;;;;;48.35;10.77;;;9.90;99.90;;;;;;5025531;28;20034;-68
2022/05/12 04:35:13;;;;;;;55.80;10.80;;;9.90;99.90;;;;;;5014687;28;20022;-68
2022/05/12 04:37:45;;;;;;;45.85;10.75;;;9.90;99.90;;;;;;5014800;28;20076;-68
2022/05/12 04:40:22;;;;;;;45.25;10.70;;;9.90;99.90;;;;;;5014667;28;20017;-68
2022/05/12 04:42:48;;;;;;;61.20;10.98;;;10.00;99.90;;;;;;5014304;28;20483;-67
2022/05/12 04:45:15;;;;;;;46.03;10.40;;;10.00;99.90;;;;;;5014390;28;20029;-67
2022/05/12 04:47:41;;;;;;;35.10;9.00;;;10.10;99.90;;;;;;5014059;28;20486;-68
2022/05/12 04:50:09;;;;;;;37.50;8.93;;;10.20;99.90;;;;;;5014525;28;20030;-67
2022/05/12 04:52:35;;;;;;;49.72;8.77;;;10.30;99.90;;;;;;5014150;28;20030;-68
2022/05/12 04:55:01;;;;;;;47.55;9.77;;;10.30;99.90;;;;;;5015359;28;20032;-67
2022/05/12 04:57:26;;;;;;;50.72;9.70;;;10.30;99.90;;;;;;5014232;28;20544;-68
2022/05/12 04:59:55;;;;;;;41.20;8.32;;;10.40;99.90;;;;;;5012206;28;20465;-68
2022/05/12 05:02:21;;;;;;;37.65;8.45;;;10.40;99.90;;;;;;5013689;28;20056;-68
2022/05/12 05:04:48;;;;;;;41.97;8.38;;;10.50;99.90;;;;;;5014149;28;20025;-68
2022/05/12 05:07:13;;;;;;;40.72;7.72;;;10.50;99.90;;;;;;5013757;28;20061;-68
2022/05/12 05:09:41;;;;;;;63.70;11.00;;;10.50;99.90;;;;;;5013894;28;20064;-68
2022/05/12 05:12:07;;;;;;;51.83;9.45;;;10.50;99.90;;;;;;5013756;28;20083;-67
2022/05/12 05:14:32;;;;;;;32.67;7.82;;;10.50;99.90;;;;;;5014433;28;20041;-68
2022/05/12 05:16:59;;;;;;;42.47;8.35;;;10.60;99.90;;;;;;5013846;28;20471;-68
2022/05/12 05:19:25;;;;;;;45.22;9.32;;;10.60;99.90;;;;;;5014148;28;20022;-68
2022/05/12 05:21:50;;;;;;;50.50;8.77;;;10.60;99.90;;;;;;5013332;28;20034;-67
2022/05/12 05:24:16;;;;;;;59.90;9.02;;;10.70;99.90;;;;;;5013725;28;20500;-67
2022/05/12 05:26:41;;;;;;;37.00;7.75;;;10.70;99.90;;;;;;5013505;28;20026;-67
2022/05/12 05:29:07;;;;;;;37.72;7.00;;;10.70;99.90;;;;;;5013768;28;20026;-68
2022/05/12 05:31:35;;;;;;;43.83;9.50;;;10.80;99.90;;;;;;5014640;28;20026;-67
2022/05/12 05:34:01;;;;;;;34.05;7.53;;;10.70;99.90;;;;;;5030087;28;20043;-67
2022/05/12 05:36:26;;;;;;;35.85;8.40;;;10.80;99.90;;;;;;5013150;28;20048;-68
2022/05/12 05:38:52;;;;;;;37.13;8.02;;;10.80;99.90;;;;;;5013661;28;20493;-69
2022/05/12 05:41:17;;;;;;;49.08;8.15;;;10.80;99.90;;;;;;5031289;28;20030;-67
2022/05/12 05:43:44;;;;;;;40.47;7.07;;;10.90;99.90;;;;;;5033199;28;20030;-67
2022/05/12 05:46:10;;;;;;;36.80;7.13;;;10.90;99.90;;;;;;5033624;28;20361;-68
2022/05/12 05:48:36;;;;;;;39.10;7.07;;;10.90;99.90;;;;;;5033502;28;20029;-68
2022/05/12 05:53:45;;;;;;;;;;;11.10;99.90;;;;;;5087620;23;20052;-67
2022/05/12 05:56:14;;;;;;;51.67;10.98;;;11.20;99.90;;;;;;5033167;28;19996;-68
2022/05/12 05:58:42;;;;;;;31.88;6.47;;;11.40;99.90;;;;;;5032678;28;20022;-69
2022/05/12 06:01:08;;;;;;;28.15;6.43;;;11.40;99.90;;;;;;5033180;28;20112;-68
2022/05/12 06:03:34;;;;;;;35.35;6.60;;;11.50;99.90;;;;;;5033197;28;20099;-68
2022/05/12 06:06:00;;;;;;;29.90;5.22;;;11.50;99.90;;;;;;5033922;28;20021;-68
2022/05/12 06:08:25;;;;;;;19.42;4.72;;;11.50;99.90;;;;;;5033316;28;20553;-68
2022/05/12 06:10:51;;;;;;;29.42;5.10;;;11.40;99.90;;;;;;5033018;28;20029;-68
2022/05/12 06:13:17;;;;;;;22.45;4.82;;;11.50;99.90;;;;;;5032442;28;20025;-68
2022/05/12 06:15:43;;;;;;;40.78;7.00;;;11.50;99.90;;;;;;5036990;28;20028;-68
2022/05/12 06:18:14;;;;;;;37.22;5.78;;;11.50;99.90;;;;;;5037134;28;20017;-68
2022/05/12 06:20:43;;;;;;;29.33;5.53;;;11.60;99.90;;;;;;5036281;28;20025;-67
2022/05/12 06:23:10;;;;;;;26.73;5.45;;;11.80;99.90;;;;;;5036689;28;20068;-68
2022/05/12 06:25:36;;;;;;;33.03;5.75;;;11.80;99.90;;;;;;5036650;28;20117;-68
2022/05/12 06:28:01;;;;;;;35.28;6.10;;;11.80;99.90;;;;;;5036615;28;20100;-68
2022/05/12 06:30:29;;;;;;;31.88;5.68;;;11.90;99.90;;;;;;5018800;28;20052;-68
2022/05/12 06:32:56;;;;;;;29.33;5.82;;;11.90;99.90;;;;;;5036701;28;20025;-68
2022/05/12 06:35:23;;;;;;;29.75;5.95;;;11.80;99.90;;;;;;5036104;28;20017;-68
2022/05/12 06:37:49;;;;;;;24.77;6.55;;;11.60;99.90;;;;;;5036735;28;20032;-68
2022/05/12 06:40:15;;;;;;;23.23;5.18;;;11.60;99.90;;;;;;5036170;28;20070;-68
2022/05/12 06:42:41;;;;;;;35.90;6.28;;;11.50;99.90;;;;;;5035731;28;20029;-68
2022/05/12 06:45:09;;;;;;;23.48;6.05;;;11.60;99.90;;;;;;5036440;28;20484;-68
2022/05/12 06:47:35;;;;;;;25.85;5.38;;;11.70;99.90;;;;;;5037040;28;20036;-67
2022/05/12 06:50:03;;;;;;;34.30;4.60;;;11.90;99.90;;;;;;5036210;28;20397;-67
2022/05/12 06:52:29;;;;;;;21.80;4.05;;;12.20;99.90;;;;;;5036118;28;20033;-68
2022/05/12 06:54:55;;;;;;;10.23;2.92;;;12.40;99.90;;;;;;5036185;28;20021;-68
2022/05/12 06:57:23;;;;;;;21.73;3.92;;;12.50;99.90;;;;;;5035754;28;20465;-68
2022/05/12 06:59:49;;;;;;;17.23;3.58;;;12.50;99.90;;;;;;5036020;28;20457;-68
2022/05/12 07:02:15;;;;;;;21.02;4.43;;;12.50;99.90;;;;;;5036027;28;20018;-68
2022/05/12 07:04:41;;;;;;;24.75;4.13;;;12.40;99.90;;;;;;5036019;28;20029;-68
2022/05/12 07:07:07;;;;;;;16.92;3.70;;;12.40;99.90;;;;;;5035381;28;20028;-68
2022/05/12 07:09:33;;;;;;;23.00;3.97;;;12.40;99.90;;;;;;5036241;28;20108;-68
2022/05/12 07:11:59;;;;;;;18.63;4.25;;;12.50;99.90;;;;;;5036020;28;20071;-68
2022/05/12 07:14:25;;;;;;;25.80;5.03;;;12.70;99.90;;;;;;5035975;28;20393;-68
2022/05/12 07:16:50;;;;;;;27.77;4.10;;;12.60;99.90;;;;;;5035861;28;20105;-68
2022/05/12 07:19:17;;;;;;;20.25;4.07;;;12.70;99.90;;;;;;5035940;28;20049;-68
2022/05/12 07:27:16;;;;;;;34.60;3.92;;;12.80;99.90;;;;;;5035875;28;20109;-68
2022/05/12 07:29:42;;;;;;;22.90;3.20;;;12.70;99.90;;;;;;5035456;28;20061;-68
2022/05/12 07:32:08;;;;;;;22.80;3.47;;;12.60;99.90;;;;;;5035150;28;20069;-68
2022/05/12 07:34:34;;;;;;;21.17;2.92;;;12.60;99.90;;;;;;5035690;28;20060;-68
2022/05/12 07:36:59;;;;;;;9.38;2.70;;;12.80;99.90;;;;;;5034987;28;20026;-68
2022/05/12 07:39:29;;;;;;;14.73;2.92;;;13.10;99.90;;;;;;5035170;28;20024;-68
2022/05/12 07:41:59;;;;;;;16.13;2.88;;;13.30;99.90;;;;;;5035018;28;20458;-68
2022/05/12 07:44:32;;;;;;;14.15;3.40;;;13.60;99.90;;;;;;5035487;28;20022;-68
2022/05/12 07:47:00;;;;;;;20.95;4.07;;;13.70;99.90;;;;;;5036081;28;20115;-67
2022/05/12 07:49:31;;;;;;;15.43;3.03;;;13.70;99.90;;;;;;5016840;28;20029;-68
2022/05/12 07:51:57;;;;;;;21.45;2.83;;;13.70;99.90;;;;;;5035148;28;20140;-67
2022/05/12 07:54:23;;;;;;;14.32;2.13;;;14.00;99.90;;;;;;5035625;28;20061;-67
2022/05/12 07:56:49;;;;;;;11.98;2.17;;;13.90;99.90;;;;;;5035000;28;20060;-67
2022/05/12 07:59:14;;;;;;;19.63;2.53;;;13.90;99.90;;;;;;5034929;28;20014;-66
2022/05/12 08:01:40;;;;;;;15.48;2.53;;;14.10;99.90;;;;;;5034416;28;20037;-67
2022/05/12 08:04:05;;;;;;;16.70;2.53;;;14.10;99.90;;;;;;5034712;28;20150;-68
2022/05/12 08:06:32;;;;;;;9.15;3.45;;;14.40;99.90;;;;;;5035046;28;20025;-68
2022/05/12 08:08:57;;;;;;;15.18;2.88;;;14.60;99.90;;;;;;5035055;28;20179;-67
2022/05/12 08:11:24;;;;;;;22.88;3.70;;;14.50;99.90;;;;;;5034647;28;20509;-68
2022/05/12 08:13:50;;;;;;;16.80;2.72;;;14.70;99.90;;;;;;5034898;28;20021;-68
2022/05/12 08:16:20;;;;;;;12.43;2.17;;;14.60;99.90;;;;;;5034636;28;20097;-68
2022/05/12 08:18:49;;;;;;;14.02;2.45;;;14.60;99.90;;;;;;5034810;28;20024;-67
2022/05/12 08:21:16;;;;;;;35.08;3.38;;;14.20;99.90;;;;;;5034347;28;20088;-67
2022/05/12 08:23:41;;;;;;;23.67;3.47;;;14.10;99.90;;;;;;5034553;28;20120;-67
2022/05/12 08:26:07;;;;;;;13.52;2.95;;;14.20;99.90;;;;;;5034427;28;20049;-67
2022/05/12 08:28:33;;;;;;;15.10;2.35;;;14.40;99.90;;;;;;5034786;28;20469;-67
2022/05/12 08:30:58;;;;;;;21.58;2.80;;;14.50;99.90;;;;;;5034264;28;20025;-67
2022/05/12 08:33:24;;;;;;;18.15;3.40;;;14.60;99.90;;;;;;5034134;28;20022;-67
2022/05/12 08:35:51;;;;;;;15.38;2.50;;;14.90;99.90;;;;;;5034687;28;20034;-67
2022/05/12 08:38:18;;;;;;;15.70;2.40;;;15.10;99.90;;;;;;5033959;28;20025;-67
2022/05/12 08:41:01;;;;;;;14.77;2.28;;;15.10;99.90;;;;;;5034114;28;20037;-67
2022/05/12 08:44:06;;;;;;;9.40;2.00;;;14.70;99.90;;;;;;5033826;28;20034;-67
2022/05/12 08:46:57;;;;;;;;;;;14.10;99.90;;;;;;4954487;29;20031;-67
2022/05/12 08:49:30;;;;;;;10.35;2.05;;;13.90;99.90;;;;;;5028762;28;20346;-67
2022/05/12 08:52:22;;;;;;;17.40;3.25;;;14.10;99.90;;;;;;5033831;28;20037;-67
2022/05/12 08:54:54;;;;;;;18.13;3.08;;;14.60;99.90;;;;;;5034164;28;20041;-67
2022/05/12 08:57:33;;;;;;;17.75;2.45;;;15.00;99.90;;;;;;5034437;28;20379;-67
2022/05/12 09:00:01;;;;;;;19.27;2.83;;;15.00;99.90;;;;;;5034054;28;20477;-67
2022/05/12 09:02:36;;;;;;;15.30;2.53;;;15.10;99.90;;;;;;5033956;28;20036;-67
2022/05/12 09:05:05;;;;;;;21.10;2.78;;;15.50;99.90;;;;;;5033796;28;20087;-67
2022/05/12 09:08:02;;;;;;;17.77;2.88;;;15.80;99.90;;;;;;5033496;28;20025;-68
2022/05/12 09:10:58;;;;;;;16.40;2.33;;;15.50;99.90;;;;;;5016181;28;20037;-67
2022/05/12 09:13:45;;;;;;;18.30;3.10;;;15.20;99.90;;;;;;5027042;28;20532;-67
2022/05/12 09:16:15;;;;;;;13.35;3.08;;;15.10;99.90;;;;;;5034447;28;20339;-67
2022/05/12 09:18:41;;;;;;;17.65;2.70;;;15.30;99.90;;;;;;5033039;28;20430;-68
2022/05/12 09:21:21;;;;;;;15.85;2.72;;;15.40;99.90;;;;;;5033402;28;20381;-67
2022/05/12 09:23:47;;;;;;;19.67;3.40;;;15.40;99.90;;;;;;5033723;28;20454;-67
2022/05/12 09:26:31;;;;;;;13.10;2.83;;;15.30;99.90;;;;;;5033467;28;20023;-67
2022/05/12 09:29:09;;;;;;;;;;;15.10;99.90;;;;;;5033813;28;20028;-67
2022/05/12 09:31:34;;;;;;;17.35;2.10;;;15.50;99.90;;;;;;5033080;28;20377;-67
2022/05/12 09:34:20;;;;;;;10.90;2.72;;;15.40;99.90;;;;;;5033281;28;20036;-67
2022/05/12 09:36:46;;;;;;;7.35;1.95;;;15.40;99.90;;;;;;5033627;28;20053;-67
2022/05/12 09:39:31;;;;;;;12.05;2.47;;;15.50;99.90;;;;;;5034186;28;20068;-67
2022/05/12 09:41:58;;;;;;;20.58;2.55;;;15.30;99.90;;;;;;5032655;28;20159;-68
2022/05/12 09:44:27;;;;;;;15.40;1.85;;;14.80;99.90;;;;;;5033556;28;20029;-67
2022/05/12 09:46:59;;;;;;;16.70;2.00;;;15.00;99.90;;;;;;5015566;28;20029;-67
2022/05/12 09:49:31;;;;;;;14.90;3.08;;;14.90;99.90;;;;;;5037154;28;20110;-67
2022/05/12 09:51:57;;;;;;;11.07;2.00;;;14.90;99.90;;;;;;5036916;28;20079;-67
2022/05/12 09:54:29;;;;;;;17.60;2.90;;;15.40;99.90;;;;;;5037528;28;20021;-67
2022/05/12 09:57:14;;;;;;;11.77;2.88;;;15.40;99.90;;;;;;5037441;28;20033;-67
2022/05/12 09:59:42;;;;;;;15.23;2.00;;;15.30;99.90;;;;;;5037482;28;20021;-67
2022/05/12 10:08:20;;;;;;;18.15;3.38;;;16.00;99.90;;;;;;5037636;28;20393;-67
2022/05/12 10:10:52;;;;;;;9.70;1.98;;;16.20;99.90;;;;;;5037170;28;20496;-67
2022/05/12 10:13:38;;;;;;;9.85;2.17;;;16.30;99.90;;;;;;5036810;28;20092;-67
2022/05/12 10:16:05;;;;;;;9.45;2.30;;;16.30;99.90;;;;;;5036461;28;20030;-67
2022/05/12 10:18:37;;;;;;;15.77;2.45;;;16.20;99.90;;;;;;5036855;28;20029;-67
2022/05/12 10:21:13;;;;;;;11.82;3.03;;;16.50;99.90;;;;;;5037160;28;20079;-67
2022/05/12 10:23:59;;;;;;;8.98;1.67;;;16.60;99.90;;;;;;5036923;28;20535;-67
2022/05/12 10:26:43;;;;;;;12.18;2.08;;;16.50;99.90;;;;;;5036925;28;20034;-67
2022/05/12 10:29:21;;;;;;;11.38;2.42;;;16.30;99.90;;;;;;5036185;28;20051;-67
2022/05/12 10:32:08;;;;;;;13.93;3.60;;;16.60;99.90;;;;;;5036826;28;20025;-67
2022/05/12 10:34:37;;;;;;;18.67;2.85;;;16.70;99.90;;;;;;5036833;28;20053;-67
2022/05/12 10:37:27;;;;;;;16.95;3.53;;;16.60;99.90;;;;;;5036793;28;20025;-67
2022/05/12 10:40:37;;;;;;;18.70;3.72;;;16.30;99.90;;;;;;5036033;28;20033;-67
2022/05/12 10:43:35;;;;;;;20.55;3.30;;;16.40;99.90;;;;;;4956162;29;20102;-68
2022/05/12 10:46:05;;;;;;;20.23;3.17;;;17.00;99.90;;;;;;5036643;28;20052;-67
2022/05/12 10:48:38;;;;;;;17.77;2.65;;;16.50;99.90;;;;;;5036431;28;20496;-67
2022/05/12 10:51:06;;;;;;;;;;;16.20;99.90;;;;;;5036356;28;20044;-67
2022/05/12 10:53:56;;;;;;;17.90;2.90;;;15.90;99.90;;;;;;5018505;28;19913;-67
2022/05/12 10:56:59;;;;;;;23.48;3.70;;;15.70;99.90;;;;;;5036663;28;20024;-67
2022/05/12 10:59:57;;;;;;;15.25;3.50;;;15.50;99.90;;;;;;5035191;28;20450;-67
2022/05/12 11:02:35;;;;;;;17.48;2.30;;;15.80;99.90;;;;;;5018240;28;20428;-67
2022/05/12 11:05:09;;;;;;;19.50;3.33;;;16.10;99.90;;;;;;5035689;28;20029;-67
2022/05/12 11:07:42;;;;;;;16.45;3.20;;;16.50;99.90;;;;;;5036524;28;20032;-67
2022/05/12 11:10:17;;;;;;;12.38;2.65;;;16.60;99.90;;;;;;5036042;28;20473;-67
2022/05/12 11:12:46;;;;;;;13.15;2.35;;;16.70;99.90;;;;;;5035992;28;20034;-67
2022/05/12 11:15:19;;;;;;;14.07;2.53;;;17.00;99.90;;;;;;5036083;28;20421;-67
2022/05/12 11:17:49;;;;;;;15.73;2.53;;;17.00;99.90;;;;;;5035567;28;20029;-67
2022/05/12 11:20:36;;;;;;;14.82;2.50;;;16.80;99.90;;;;;;5035876;28;20014;-67
2022/05/12 11:23:20;;;;;;;10.73;2.20;;;16.70;99.90;;;;;;5035893;28;20032;-67
2022/05/12 11:25:48;;;;;;;;;;;16.60;99.90;;;;;;5035998;28;20026;-67
2022/05/12 11:31:24;;;;;;;19.50;2.55;;;16.50;99.90;;;;;;5035612;28;20515;-67
2022/05/12 11:33:54;;;;;;;11.45;2.47;;;16.20;99.90;;;;;;5035721;28;20171;-67
2022/05/12 11:36:20;;;;;;;17.08;3.08;;;16.40;99.90;;;;;;5035561;28;20075;-67
2022/05/12 11:38:53;;;;;;;17.13;3.05;;;16.60;99.90;;;;;;5035339;28;20488;-67
2022/05/12 11:41:24;;;;;;;13.88;2.85;;;16.70;99.90;;;;;;5035168;28;20013;-68
2022/05/12 11:47:01;;;;;;;22.00;3.67;;;16.50;99.90;;;;;;5035266;28;20056;-67
2022/05/12 11:49:35;;;;;;;24.90;3.28;;;16.40;99.90;;;;;;5035316;28;20021;-67
2022/05/12 11:52:15;;;;;;;16.33;3.30;;;16.60;99.90;;;;;;5034796;28;20178;-68
2022/05/12 11:54:53;;;;;;;19.90;3.08;;;16.60;99.90;;;;;;5035122;28;20033;-68
2022/05/12 11:57:36;;;;;;;20.45;3.05;;;16.60;99.90;;;;;;5034975;28;20372;-68
2022/05/12 12:00:09;;;;;;;23.98;4.32;;;16.80;99.90;;;;;;5035275;28;20028;-68
2022/05/12 12:02:39;;;;;;;23.25;3.35;;;16.80;99.90;;;;;;5035403;28;20029;-68
2022/05/12 12:05:08;;;;;;;28.50;3.40;;;16.90;99.90;;;;;;5034824;28;20021;-68
2022/05/12 12:07:35;;;;;;;15.73;2.40;;;17.10;99.90;;;;;;5034565;28;20037;-68
2022/05/12 12:10:25;;;;;;;14.00;2.65;;;16.90;99.90;;;;;;5035058;28;20025;-68
2022/05/12 12:13:07;;;;;;;13.77;2.58;;;17.20;99.90;;;;;;5033826;28;20031;-68
2022/05/12 12:15:39;;;;;;;14.45;2.75;;;17.20;99.90;;;;;;5034718;28;20071;-68
2022/05/12 12:18:22;;;;;;;16.85;2.50;;;17.20;99.90;;;;;;5034865;28;20100;-68
2022/05/12 12:20:49;;;;;;;8.75;2.33;;;17.10;99.90;;;;;;5016343;28;20028;-68
2022/05/12 12:23:30;;;;;;;18.60;2.72;;;17.00;99.90;;;;;;5034548;28;20432;-68
2022/05/12 12:25:58;;;;;;;14.95;2.88;;;17.20;99.90;;;;;;5034462;28;20429;-68
2022/05/12 12:28:32;;;;;;;24.23;2.80;;;17.50;99.90;;;;;;5034337;28;20401;-68
2022/05/12 12:31:05;;;;;;;16.55;2.88;;;17.90;99.90;;;;;;5033876;28;20026;-68
2022/05/12 12:33:35;;;;;;;19.75;3.88;;;17.90;99.90;;;;;;5034320;28;20033;-68
2022/05/12 12:36:00;;;;;;;18.40;3.45;;;17.90;99.90;;;;;;5034415;28;20491;-68
2022/05/12 12:38:44;;;;;;;15.38;2.65;;;18.00;99.90;;;;;;5034256;28;20096;-68
2022/05/12 12:41:15;;;;;;;17.48;2.45;;;18.40;99.90;;;;;;5034138;28;20029;-68
2022/05/12 12:43:46;;;;;;;23.15;2.88;;;18.60;99.90;;;;;;5033858;28;20393;-68
2022/05/12 12:46:16;;;;;;;22.92;3.58;;;18.30;99.90;;;;;;5032586;28;20104;-68
2022/05/12 12:48:53;;;;;;;18.65;3.72;;;18.30;99.90;;;;;;5034038;28;20021;-68
2022/05/12 12:51:51;;;;;;;15.20;2.55;;;18.50;99.90;;;;;;5027145;28;20374;-68
2022/05/12 12:57:24;;;;;;;11.38;2.55;;;18.00;99.90;;;;;;5024845;28;20084;-68
2022/05/12 12:59:58;;;;;;;16.13;2.83;;;18.20;99.90;;;;;;5033625;28;20026;-68
2022/05/12 13:02:31;;;;;;;16.70;3.20;;;18.40;99.90;;;;;;5029189;28;20042;-68
2022/05/12 13:05:01;;;;;;;14.50;2.03;;;18.20;99.90;;;;;;5014298;28;20025;-68
2022/05/12 13:07:30;;;;;;;20.88;3.38;;;18.40;99.90;;;;;;5014318;28;20025;-68
2022/05/12 13:09:57;;;;;;;17.60;2.72;;;18.00;99.90;;;;;;5013636;28;20025;-68
2022/05/12 13:12:26;;;;;;;25.00;3.47;;;18.20;99.90;;;;;;5014150;28;20101;-69
2022/05/12 13:14:53;;;;;;;21.83;2.85;;;18.20;99.90;;;;;;5014143;28;20028;-68
2022/05/12 13:17:34;;;;;;;21.70;3.10;;;18.20;99.90;;;;;;5014255;28;20072;-68